ADDS METAR Data INFO
IDs: Format: Raw Decoded Include TAF

Data at: 1143 UTC 17 Jul 2018

KHLX 171135Z AUTO 22003KT 10SM SCT002 SCT070 20/19 A3006 RMK AO2 T01960190
KHLX 171115Z AUTO 24003KT 3/4SM BR BKN002 OVC060 19/19 A3006 RMK AO2 T01920186
KHLX 171055Z AUTO 00000KT 1 1/2SM BR BKN002 OVC060 19/19 A3006 RMK AO2 VIS 1/4V5 T01920186
KHLX 171035Z AUTO 00000KT M1/4SM FG OVC002 19/19 A3006 RMK AO2 T01920186
KHLX 171015Z AUTO 23003KT 1/2SM FG OVC002 19/19 A3006 RMK AO2 T01930187
KHLX 170955Z AUTO 00000KT 1 3/4SM BR OVC002 20/19 A3005 RMK AO2 T01950188
KHLX 170935Z AUTO 24003KT 2 1/2SM BR SCT002 BKN095 20/19 A3006 RMK AO2 LTG DSNT N T01950189
KHLX 170915Z AUTO 24003KT 2 1/2SM BR SCT002 SCT070 20/19 A3006 RMK AO2 T01950190
KHLX 170855Z AUTO 00000KT 5SM BR BKN070 20/19 A3005 RMK AO2 T01960190
KHLX 170835Z AUTO 00000KT 7SM BKN070 20/19 A3005 RMK AO2 T01970190
KHLX 170815Z AUTO 00000KT 10SM SCT070 20/19 A3005 RMK AO2 T01970191
KHLX 170755Z AUTO 00000KT 10SM BKN070 20/19 A3006 RMK AO2 T01990192
KHLX 170735Z AUTO 22003KT 10SM CLR 20/19 A3005 RMK AO2 T02000194
KHLX 170715Z AUTO 21005KT 10SM SCT080 20/20 A3006 RMK AO2 T02010195
KHLX 170655Z AUTO 22006KT 10SM BKN080 20/20 A3006 RMK AO2 T02030197
KHLX 170635Z AUTO 20004KT 10SM SCT080 20/20 A3006 RMK AO2 T02020196
KHLX 170615Z AUTO 21004KT 10SM SCT070 20/20 A3007 RMK AO2 T02010195
KHLX 170555Z AUTO 19004KT 10SM SCT049 BKN070 20/20 A3007 RMK AO2 T02020196 10243 20202
KHLX 170535Z AUTO 21005KT 10SM SCT049 OVC065 20/20 A3009 RMK AO2 T02040197
KHLX 170515Z AUTO 20003KT 10SM OVC070 21/20 A3009 RMK AO2 T02050199
KHLX 170455Z AUTO 19004KT 10SM BKN070 21/20 A3010 RMK AO2 T02050198 402820195
KHLX 170435Z AUTO 20005KT 10SM BKN075 21/20 A3009 RMK AO2 T02060197
KHLX 170415Z AUTO 19004KT 10SM SCT043 SCT075 21/20 A3009 RMK AO2 T02070197
KHLX 170355Z AUTO 18003KT 10SM CLR 21/20 A3010 RMK AO2 T02080197
KHLX 170335Z AUTO 00000KT 10SM CLR 21/20 A3009 RMK AO2 T02100197
KHLX 170315Z AUTO 18003KT 10SM CLR 21/20 A3009 RMK AO2 T02100197
KHLX 170255Z AUTO 18004KT 10SM SCT090 21/20 A3010 RMK AO2 T02130197
KHLX 170235Z AUTO 17004KT 10SM CLR 22/20 A3010 RMK AO2 T02150198
KHLX 170215Z AUTO 19004KT 10SM SCT100 22/20 A3010 RMK AO2 T02170201
KHLX 170155Z AUTO 20006KT 10SM SCT100 BKN120 22/20 A3010 RMK AO2 T02180204
KHLX 170135Z AUTO 21006KT 10SM SCT120 22/20 A3009 RMK AO2 T02210204
KHLX 170115Z AUTO 21006KT 10SM CLR 22/20 A3008 RMK AO2 T02240202
KHLX 170055Z AUTO 18005KT 10SM CLR 23/20 A3008 RMK AO2 T02260200
KHLX 170035Z AUTO 18004KT 10SM SCT110 23/20 A3008 RMK AO2 T02300198
KHLX 170015Z AUTO 17005KT 10SM BKN100 23/20 A3007 RMK AO2 T02340197
KHLX 162355Z AUTO 20007KT 10SM BKN090 BKN110 24/20 A3006 RMK AO2 T02430195 10281 20243
KHLX 162335Z AUTO 19006KT 10SM OVC100 25/20 A3007 RMK AO2 LTG DSNT NW T02470195
KHLX 162315Z AUTO 21008KT 10SM SCT027 OVC110 25/21 A3006 RMK AO2 T02520210
KHLX 162255Z AUTO 19004KT 10SM SCT050 SCT085 BKN110 25/21 A3006 RMK AO2 LTG DSNT W T02500210
KHLX 162235Z AUTO 18003KT 10SM BKN090 OVC110 25/21 A3006 RMK AO2 LTG DSNT SW T02460208
KHLX 162215Z AUTO 19005KT 10SM -RA SCT038 SCT075 OVC090 25/21 A3007 RMK AO2 T02450206
KHLX 162155Z AUTO 18004KT 10SM SCT034 SCT050 BKN075 25/20 A3008 RMK AO2 LTG DSNT N AND NW T02530204
KHLX 162135Z AUTO 19004KT 10SM SCT031 SCT048 BKN075 26/20 A3008 RMK AO2 LTG DSNT N AND NW T02550201
KHLX 162115Z AUTO 20008KT 10SM SCT033 BKN042 BKN080 27/21 A3007 RMK AO2 LTG DSNT S AND NW T02660209
KHLX 162055Z AUTO 17004KT 10SM SCT031 SCT050 SCT060 26/21 A3007 RMK AO2 LTG DSNT N AND SW T02580212
KHLX 162035Z AUTO 18008KT 10SM SCT031 SCT046 OVC060 26/21 A3007 RMK AO2 LTG DSNT SW AND NW T02620209
KHLX 162015Z AUTO 17005KT 10SM SCT050 SCT070 27/20 A3008 RMK AO2 LTG DSNT SW AND W T02670197
KHLX 161955Z AUTO 16005KT 10SM SCT039 SCT075 BKN080 27/21 A3007 RMK AO2 T02730205
KHLX 161935Z AUTO 19004KT 10SM SCT037 SCT075 26/19 A3008 RMK AO2 LTG DSNT SW T02610194
KHLX 161915Z AUTO 19003KT 10SM CLR 27/18 A3010 RMK AO2 T02670183
KHLX 161855Z AUTO 23004KT 10SM SCT040 27/17 A3010 RMK AO2 LTG DSNT NW T02690168
KHLX 161835Z AUTO 24006KT 10SM SCT040 BKN048 BKN070 28/20 A3010 RMK AO2 LTG DSNT N T02750198
KHLX 161815Z AUTO 19004KT 10SM SCT040 27/18 A3011 RMK AO2 LTG DSNT NW T02690182
KHLX 161755Z AUTO 17004KT 10SM SCT044 28/18 A3012 RMK AO2 T02780176 10282 20202
KHLX 161735Z AUTO 22007KT 10SM CLR 28/17 A3012 RMK AO2 T02810167
KHLX 161715Z AUTO 21007KT 10SM CLR 28/16 A3013 RMK AO2 T02760159
KHLX 161655Z AUTO 22008KT 10SM SCT090 27/19 A3014 RMK AO2 T02710186
KHLX 161640Z AUTO 21006KT 10SM BKN090 26/20 A3014 RMK AO2 T02620199
KHLX 161615Z AUTO 20007KT 10SM SCT075 OVC090 26/20 A3016 RMK AO2 T02560201
KHLX 161555Z AUTO 20004KT 10SM BKN075 26/21 A3016 RMK AO2 T02560206
KHLX 161535Z AUTO 21003KT 10SM SCT110 25/21 A3016 RMK AO2 T02540210
KHLX 161515Z AUTO 23003KT 10SM SCT009 SCT075 BKN110 24/21 A3015 RMK AO2 T02420206
KHLX 161455Z AUTO 25004KT 10SM SCT007 BKN075 BKN110 24/22 A3015 RMK AO2 T02370221
KHLX 161435Z AUTO 00000KT 10SM SCT075 BKN120 23/22 A3015 RMK AO2 T02300216
KHLX 161415Z AUTO 00000KT 10SM OVC120 22/21 A3015 RMK AO2 T02220207
KHLX 161355Z AUTO 00000KT 10SM SCT002 SCT075 BKN110 21/21 A3015 RMK AO2 T02130206
KHLX 161335Z AUTO 00000KT 7SM BKN002 OVC075 21/21 A3015 RMK AO2 T02120205
KHLX 161315Z AUTO 24004KT 5SM BR BKN002 21/20 A3015 RMK AO2 T02080202
KHLX 161255Z AUTO 23003KT 5SM BR BKN002 21/20 A3015 RMK AO2 T02050199
KHLX 161235Z AUTO 20003KT 4SM BR BKN002 OVC120 21/20 A3015 RMK AO2 T02050198
KHLX 161215Z AUTO 00000KT 7SM BKN120 20/20 A3014 RMK AO2 T02020196
KHLX 161155Z AUTO 00000KT 5SM BR SCT001 SCT120 20/20 A3013 RMK AO2 60012 70087 T02010196 10201 20195
KHLX 161135Z AUTO 00000KT 2SM BR BKN001 20/19 A3014 RMK AO2 T01980192
KHLX 161115Z AUTO 00000KT 4SM BR CLR 20/19 A3014 RMK AO2 T01960190
KHLX 161055Z AUTO 00000KT 4SM BR CLR 20/19 A3013 RMK AO2 T01950190
KHLX 161035Z AUTO 00000KT 4SM BR SCT002 SCT095 SCT120 20/19 A3013 RMK AO2 T01950188
KHLX 161015Z AUTO 00000KT 1/2SM FG OVC002 20/19 A3013 RMK AO2 T01950189
KHLX 160955Z AUTO 00000KT 1/4SM FG OVC002 20/19 A3013 RMK AO2 T01950190
KHLX 160935Z AUTO 00000KT 1 1/4SM BR BKN002 BKN100 20/19 A3013 RMK AO2 T01950190
KHLX 160915Z AUTO 00000KT 7SM SCT120 20/19 A3012 RMK AO2 T01960190
KHLX 160855Z AUTO 00000KT 4SM -DZ BKN120 20/19 A3012 RMK AO2 P0001 60012 T01960190
KHLX 160835Z AUTO 00000KT 3SM -RA SCT001 SCT016 BKN120 20/19 A3012 RMK AO2 T01960190
KHLX 160815Z AUTO 21003KT 3/4SM -RA OVC001 20/19 A3012 RMK AO2 T01970191
KHLX 160755Z AUTO 18003KT 1/4SM FG OVC001 20/19 A3012 RMK AO2 P0004 T01970191
KHLX 160735Z AUTO 23004KT 2 1/2SM -RA BKN120 20/19 A3012 RMK AO2 VIS 1 1/2V4 P0003 T01980192
KHLX 160715Z AUTO 20003KT 7SM -RA OVC120 20/19 A3013 RMK AO2 P0003 T01990192
KHLX 160655Z AUTO 29003KT 10SM RA OVC110 20/19 A3014 RMK AO2 LTG DSNT SE P0007 T02000193
KHLX 160635Z AUTO 00000KT 1 3/4SM RA BKN001 BKN019 OVC120 20/20 A3015 RMK AO2 LTG DSNT S P0003 T02000195
KHLX 160615Z AUTO 27003KT 1 1/4SM -DZ OVC001 20/20 A3016 RMK AO2 T02000195
KHLX 160555Z AUTO 27005KT 1/2SM -RA OVC001 20/19 A3016 RMK AO2 LTG DSNT NW T02000193 10207 20198
KHLX 160535Z AUTO 26004KT 1/2SM FG OVC001 20/19 A3015 RMK AO2 LTG DSNT N AND NW T02000193
KHLX 160515Z AUTO 00000KT 1SM BR BKN001 BKN041 OVC095 20/19 A3015 RMK AO2 LTG DSNT SW THRU N T01980192
KHLX 160455Z AUTO 00000KT 4SM BR SCT001 BKN041 OVC095 20/19 A3015 RMK AO2 T02000193 402940173
KHLX 160435Z AUTO 00000KT 1/2SM FG OVC001 20/19 A3016 RMK AO2 T02000194
KHLX 160415Z AUTO 00000KT 2SM BR SCT001 20/19 A3015 RMK AO2 LTG DSNT SW T02000194
KHLX 160355Z AUTO 14003KT 1SM BR BKN002 BKN070 20/20 A3015 RMK AO2 LTG DSNT SW T02000195
KHLX 160335Z AUTO 14003KT 3SM BR BKN070 BKN110 20/20 A3015 RMK AO2 T02010195
KHLX 160315Z AUTO 15003KT 10SM BKN070 OVC110 20/20 A3016 RMK AO2 T02030197
KHLX 160255Z AUTO 00000KT 10SM SCT070 OVC110 20/20 A3016 RMK AO2 T02030197
KHLX 160235Z AUTO 00000KT 10SM OVC110 20/20 A3016 RMK AO2 T02030197
KHLX 160215Z AUTO 00000KT 10SM BKN110 20/20 A3015 RMK AO2 T02020196
KHLX 160155Z AUTO 11003KT 7SM SCT120 20/20 A3014 RMK AO2 T02020196
KHLX 160140Z AUTO 12003KT 7SM SCT120 20/20 A3014 RMK AO2 T02030197
KHLX 160120Z AUTO 11003KT 7SM CLR 21/20 A3014 RMK AO2 T02050198
KHLX 160055Z AUTO 00000KT 10SM CLR 21/20 A3014 RMK AO2 T02050199
KHLX 160035Z AUTO 09003KT 3SM BR SCT075 SCT100 SCT120 21/20 A3013 RMK AO2 T02050200
KHLX 160015Z AUTO 00000KT 4SM -RA SCT065 SCT075 BKN110 21/20 A3013 RMK AO2 T02060200
KHLX 152355Z AUTO 00000KT 7SM SCT110 21/20 A3013 RMK AO2 60075 T02070201 10282 20195